sensor_id;sensor_type;location;lat;lon;timestamp;P1;durP1;ratioP1;P2;durP2;ratioP2
76063;SDS011;64762;52.006;8.424;2022-11-15T00:00:24;12.10;;;6.13;;
76063;SDS011;64762;52.006;8.424;2022-11-15T00:02:51;10.77;;;5.78;;
76063;SDS011;64762;52.006;8.424;2022-11-15T00:05:17;13.40;;;6.00;;
76063;SDS011;64762;52.006;8.424;2022-11-15T00:07:42;10.87;;;5.50;;
76063;SDS011;64762;52.006;8.424;2022-11-15T00:10:08;11.23;;;6.13;;
76063;SDS011;64762;52.006;8.424;2022-11-15T00:12:33;10.05;;;5.63;;
76063;SDS011;64762;52.006;8.424;2022-11-15T00:14:58;10.17;;;5.47;;
76063;SDS011;64762;52.006;8.424;2022-11-15T00:17:24;11.37;;;5.43;;
76063;SDS011;64762;52.006;8.424;2022-11-15T00:19:49;10.50;;;5.37;;
76063;SDS011;64762;52.006;8.424;2022-11-15T00:22:14;9.03;;;5.20;;
76063;SDS011;64762;52.006;8.424;2022-11-15T00:24:40;9.90;;;5.30;;
76063;SDS011;64762;52.006;8.424;2022-11-15T00:27:05;9.87;;;4.57;;
76063;SDS011;64762;52.006;8.424;2022-11-15T00:29:30;12.17;;;5.67;;
76063;SDS011;64762;52.006;8.424;2022-11-15T00:31:56;13.00;;;4.90;;
76063;SDS011;64762;52.006;8.424;2022-11-15T00:34:21;9.73;;;4.70;;
76063;SDS011;64762;52.006;8.424;2022-11-15T00:36:46;9.37;;;5.07;;
76063;SDS011;64762;52.006;8.424;2022-11-15T00:39:11;9.57;;;5.23;;
76063;SDS011;64762;52.006;8.424;2022-11-15T00:41:37;13.70;;;5.27;;
76063;SDS011;64762;52.006;8.424;2022-11-15T00:44:02;8.43;;;4.67;;
76063;SDS011;64762;52.006;8.424;2022-11-15T00:46:27;10.40;;;4.72;;
76063;SDS011;64762;52.006;8.424;2022-11-15T00:48:53;8.30;;;4.60;;
76063;SDS011;64762;52.006;8.424;2022-11-15T00:51:18;7.73;;;4.27;;
76063;SDS011;64762;52.006;8.424;2022-11-15T00:53:43;8.10;;;4.50;;
76063;SDS011;64762;52.006;8.424;2022-11-15T00:56:09;7.00;;;4.30;;
76063;SDS011;64762;52.006;8.424;2022-11-15T00:58:34;7.67;;;4.20;;
76063;SDS011;64762;52.006;8.424;2022-11-15T01:01:06;11.87;;;5.83;;
76063;SDS011;64762;52.006;8.424;2022-11-15T01:03:34;9.77;;;4.70;;
76063;SDS011;64762;52.006;8.424;2022-11-15T01:06:00;9.88;;;4.50;;
76063;SDS011;64762;52.006;8.424;2022-11-15T01:08:25;9.13;;;4.43;;
76063;SDS011;64762;52.006;8.424;2022-11-15T01:10:50;9.40;;;4.47;;
76063;SDS011;64762;52.006;8.424;2022-11-15T01:13:15;7.80;;;4.23;;
76063;SDS011;64762;52.006;8.424;2022-11-15T01:15:41;12.40;;;3.93;;
76063;SDS011;64762;52.006;8.424;2022-11-15T01:18:07;8.23;;;4.45;;
76063;SDS011;64762;52.006;8.424;2022-11-15T01:20:32;9.07;;;4.55;;
76063;SDS011;64762;52.006;8.424;2022-11-15T01:22:58;7.17;;;4.17;;
76063;SDS011;64762;52.006;8.424;2022-11-15T01:25:23;8.93;;;4.27;;
76063;SDS011;64762;52.006;8.424;2022-11-15T01:27:48;7.37;;;4.30;;
76063;SDS011;64762;52.006;8.424;2022-11-15T01:30:14;7.27;;;3.83;;
76063;SDS011;64762;52.006;8.424;2022-11-15T01:32:39;8.27;;;3.97;;
76063;SDS011;64762;52.006;8.424;2022-11-15T01:35:04;7.30;;;4.10;;
76063;SDS011;64762;52.006;8.424;2022-11-15T01:37:30;9.45;;;4.10;;
76063;SDS011;64762;52.006;8.424;2022-11-15T01:39:55;8.77;;;4.73;;
76063;SDS011;64762;52.006;8.424;2022-11-15T01:42:21;6.93;;;3.57;;
76063;SDS011;64762;52.006;8.424;2022-11-15T01:44:47;7.37;;;3.90;;
76063;SDS011;64762;52.006;8.424;2022-11-15T01:47:20;7.80;;;4.32;;
76063;SDS011;64762;52.006;8.424;2022-11-15T01:49:51;8.45;;;4.35;;
76063;SDS011;64762;52.006;8.424;2022-11-15T01:52:24;8.68;;;4.75;;
76063;SDS011;64762;52.006;8.424;2022-11-15T01:54:51;6.55;;;3.75;;
76063;SDS011;64762;52.006;8.424;2022-11-15T01:57:20;9.88;;;3.97;;
76063;SDS011;64762;52.006;8.424;2022-11-15T01:59:45;7.90;;;4.30;;
76063;SDS011;64762;52.006;8.424;2022-11-15T02:02:11;8.48;;;4.07;;
76063;SDS011;64762;52.006;8.424;2022-11-15T02:04:46;7.40;;;4.00;;
76063;SDS011;64762;52.006;8.424;2022-11-15T02:07:13;9.60;;;4.13;;
76063;SDS011;64762;52.006;8.424;2022-11-15T02:09:40;8.82;;;4.60;;
76063;SDS011;64762;52.006;8.424;2022-11-15T02:12:07;14.68;;;4.20;;
76063;SDS011;64762;52.006;8.424;2022-11-15T02:14:33;8.85;;;4.78;;
76063;SDS011;64762;52.006;8.424;2022-11-15T02:30:39;8.43;;;4.40;;
76063;SDS011;64762;52.006;8.424;2022-11-15T02:42:01;9.20;;;5.18;;
76063;SDS011;64762;52.006;8.424;2022-11-15T02:44:32;8.30;;;4.78;;
76063;SDS011;64762;52.006;8.424;2022-11-15T02:47:03;9.13;;;4.88;;
76063;SDS011;64762;52.006;8.424;2022-11-15T02:50:02;15.02;;;5.15;;
76063;SDS011;64762;52.006;8.424;2022-11-15T02:52:33;10.85;;;5.35;;
76063;SDS011;64762;52.006;8.424;2022-11-15T02:54:59;9.17;;;5.37;;
76063;SDS011;64762;52.006;8.424;2022-11-15T03:08:26;9.63;;;5.32;;
76063;SDS011;64762;52.006;8.424;2022-11-15T03:11:03;11.00;;;5.72;;
76063;SDS011;64762;52.006;8.424;2022-11-15T03:16:37;12.55;;;5.35;;
76063;SDS011;64762;52.006;8.424;2022-11-15T03:19:06;10.05;;;5.22;;
76063;SDS011;64762;52.006;8.424;2022-11-15T03:21:36;11.77;;;5.78;;
76063;SDS011;64762;52.006;8.424;2022-11-15T03:24:02;11.70;;;5.47;;
76063;SDS011;64762;52.006;8.424;2022-11-15T03:26:29;13.90;;;6.25;;
76063;SDS011;64762;52.006;8.424;2022-11-15T03:28:55;12.00;;;5.75;;
76063;SDS011;64762;52.006;8.424;2022-11-15T03:31:23;15.70;;;6.32;;
76063;SDS011;64762;52.006;8.424;2022-11-15T03:34:10;12.00;;;6.10;;
76063;SDS011;64762;52.006;8.424;2022-11-15T03:36:41;10.02;;;5.75;;
76063;SDS011;64762;52.006;8.424;2022-11-15T03:39:07;11.43;;;5.93;;
76063;SDS011;64762;52.006;8.424;2022-11-15T03:41:42;12.35;;;6.68;;
76063;SDS011;64762;52.006;8.424;2022-11-15T03:52:17;12.05;;;6.05;;
76063;SDS011;64762;52.006;8.424;2022-11-15T03:54:53;13.05;;;6.47;;
76063;SDS011;64762;52.006;8.424;2022-11-15T03:57:19;8.80;;;6.00;;
76063;SDS011;64762;52.006;8.424;2022-11-15T03:59:45;13.52;;;6.90;;
76063;SDS011;64762;52.006;8.424;2022-11-15T04:02:10;11.00;;;5.50;;
76063;SDS011;64762;52.006;8.424;2022-11-15T04:04:36;12.90;;;6.60;;
76063;SDS011;64762;52.006;8.424;2022-11-15T04:07:01;13.77;;;6.67;;
76063;SDS011;64762;52.006;8.424;2022-11-15T04:09:27;12.57;;;6.80;;
76063;SDS011;64762;52.006;8.424;2022-11-15T04:11:52;11.83;;;6.40;;
76063;SDS011;64762;52.006;8.424;2022-11-15T04:14:17;12.27;;;6.53;;
76063;SDS011;64762;52.006;8.424;2022-11-15T04:16:42;14.53;;;7.40;;
76063;SDS011;64762;52.006;8.424;2022-11-15T04:19:08;11.70;;;6.43;;
76063;SDS011;64762;52.006;8.424;2022-11-15T04:21:52;13.65;;;7.47;;
76063;SDS011;64762;52.006;8.424;2022-11-15T04:24:35;13.85;;;7.50;;
76063;SDS011;64762;52.006;8.424;2022-11-15T04:27:01;14.67;;;6.90;;
76063;SDS011;64762;52.006;8.424;2022-11-15T04:29:26;12.17;;;6.73;;
76063;SDS011;64762;52.006;8.424;2022-11-15T04:32:02;10.23;;;6.15;;
76063;SDS011;64762;52.006;8.424;2022-11-15T04:34:28;12.32;;;6.20;;
76063;SDS011;64762;52.006;8.424;2022-11-15T04:36:54;14.50;;;6.30;;
76063;SDS011;64762;52.006;8.424;2022-11-15T04:39:37;11.43;;;6.15;;
76063;SDS011;64762;52.006;8.424;2022-11-15T04:42:06;12.88;;;7.13;;
76063;SDS011;64762;52.006;8.424;2022-11-15T04:44:32;12.77;;;6.22;;
76063;SDS011;64762;52.006;8.424;2022-11-15T04:46:57;11.17;;;6.73;;
76063;SDS011;64762;52.006;8.424;2022-11-15T04:49:22;15.93;;;7.00;;
76063;SDS011;64762;52.006;8.424;2022-11-15T04:51:48;13.10;;;6.57;;
76063;SDS011;64762;52.006;8.424;2022-11-15T04:54:13;12.27;;;6.70;;
76063;SDS011;64762;52.006;8.424;2022-11-15T04:56:38;14.43;;;7.03;;
76063;SDS011;64762;52.006;8.424;2022-11-15T04:59:03;13.97;;;7.37;;
76063;SDS011;64762;52.006;8.424;2022-11-15T05:01:29;14.33;;;7.97;;
76063;SDS011;64762;52.006;8.424;2022-11-15T05:03:54;13.23;;;7.07;;
76063;SDS011;64762;52.006;8.424;2022-11-15T05:06:38;17.40;;;7.97;;
76063;SDS011;64762;52.006;8.424;2022-11-15T05:09:03;12.97;;;7.30;;
76063;SDS011;64762;52.006;8.424;2022-11-15T05:11:29;13.53;;;7.40;;
76063;SDS011;64762;52.006;8.424;2022-11-15T05:13:54;13.57;;;7.47;;
76063;SDS011;64762;52.006;8.424;2022-11-15T05:16:20;14.90;;;7.00;;
76063;SDS011;64762;52.006;8.424;2022-11-15T05:18:45;15.52;;;7.55;;
76063;SDS011;64762;52.006;8.424;2022-11-15T05:21:11;15.63;;;6.73;;
76063;SDS011;64762;52.006;8.424;2022-11-15T05:23:38;16.83;;;7.28;;
76063;SDS011;64762;52.006;8.424;2022-11-15T05:26:05;12.55;;;6.93;;
76063;SDS011;64762;52.006;8.424;2022-11-15T05:28:31;14.27;;;7.13;;
76063;SDS011;64762;52.006;8.424;2022-11-15T05:31:04;15.73;;;7.65;;
76063;SDS011;64762;52.006;8.424;2022-11-15T05:33:31;15.27;;;6.43;;
76063;SDS011;64762;52.006;8.424;2022-11-15T05:36:02;14.23;;;7.10;;
76063;SDS011;64762;52.006;8.424;2022-11-15T05:38:30;12.80;;;6.65;;
76063;SDS011;64762;52.006;8.424;2022-11-15T05:40:55;12.20;;;6.37;;
76063;SDS011;64762;52.006;8.424;2022-11-15T05:43:21;14.23;;;7.60;;
76063;SDS011;64762;52.006;8.424;2022-11-15T05:45:46;14.50;;;6.15;;
76063;SDS011;64762;52.006;8.424;2022-11-15T05:48:11;12.07;;;6.85;;
76063;SDS011;64762;52.006;8.424;2022-11-15T05:50:38;12.00;;;7.00;;
76063;SDS011;64762;52.006;8.424;2022-11-15T05:53:04;14.88;;;7.30;;
76063;SDS011;64762;52.006;8.424;2022-11-15T05:55:30;13.40;;;7.40;;
76063;SDS011;64762;52.006;8.424;2022-11-15T05:57:56;13.07;;;7.03;;
76063;SDS011;64762;52.006;8.424;2022-11-15T06:00:22;12.40;;;7.00;;
76063;SDS011;64762;52.006;8.424;2022-11-15T06:02:48;13.93;;;6.93;;
76063;SDS011;64762;52.006;8.424;2022-11-15T06:05:13;12.07;;;6.53;;
76063;SDS011;64762;52.006;8.424;2022-11-15T06:07:38;11.38;;;6.43;;
76063;SDS011;64762;52.006;8.424;2022-11-15T06:10:04;12.17;;;7.17;;
76063;SDS011;64762;52.006;8.424;2022-11-15T06:12:29;14.60;;;7.55;;
76063;SDS011;64762;52.006;8.424;2022-11-15T06:14:55;13.13;;;7.00;;
76063;SDS011;64762;52.006;8.424;2022-11-15T06:17:20;16.23;;;7.77;;
76063;SDS011;64762;52.006;8.424;2022-11-15T06:19:45;12.00;;;7.00;;
76063;SDS011;64762;52.006;8.424;2022-11-15T06:22:11;11.93;;;6.67;;
76063;SDS011;64762;52.006;8.424;2022-11-15T06:24:36;12.63;;;7.00;;
76063;SDS011;64762;52.006;8.424;2022-11-15T06:27:01;11.97;;;6.27;;
76063;SDS011;64762;52.006;8.424;2022-11-15T06:29:27;12.13;;;7.10;;
76063;SDS011;64762;52.006;8.424;2022-11-15T06:31:52;13.60;;;6.90;;
76063;SDS011;64762;52.006;8.424;2022-11-15T06:34:18;12.50;;;6.45;;
76063;SDS011;64762;52.006;8.424;2022-11-15T06:36:43;12.20;;;6.43;;
76063;SDS011;64762;52.006;8.424;2022-11-15T06:39:08;11.57;;;6.47;;
76063;SDS011;64762;52.006;8.424;2022-11-15T06:41:34;12.40;;;6.50;;
76063;SDS011;64762;52.006;8.424;2022-11-15T06:44:00;15.02;;;6.78;;
76063;SDS011;64762;52.006;8.424;2022-11-15T06:46:25;10.00;;;6.85;;
76063;SDS011;64762;52.006;8.424;2022-11-15T06:48:51;16.33;;;7.70;;
76063;SDS011;64762;52.006;8.424;2022-11-15T06:51:17;10.48;;;6.10;;
76063;SDS011;64762;52.006;8.424;2022-11-15T06:53:42;11.87;;;6.47;;
76063;SDS011;64762;52.006;8.424;2022-11-15T06:56:08;12.33;;;6.40;;
76063;SDS011;64762;52.006;8.424;2022-11-15T06:58:34;11.48;;;6.53;;
76063;SDS011;64762;52.006;8.424;2022-11-15T07:01:00;16.63;;;6.60;;
76063;SDS011;64762;52.006;8.424;2022-11-15T07:03:30;12.40;;;5.95;;
76063;SDS011;64762;52.006;8.424;2022-11-15T07:05:56;11.02;;;6.20;;
76063;SDS011;64762;52.006;8.424;2022-11-15T07:08:22;10.60;;;6.03;;
76063;SDS011;64762;52.006;8.424;2022-11-15T07:10:48;13.63;;;6.13;;
76063;SDS011;64762;52.006;8.424;2022-11-15T07:13:14;14.30;;;6.88;;
76063;SDS011;64762;52.006;8.424;2022-11-15T07:15:39;14.40;;;6.47;;
76063;SDS011;64762;52.006;8.424;2022-11-15T07:18:04;12.20;;;6.07;;
76063;SDS011;64762;52.006;8.424;2022-11-15T07:20:30;13.13;;;6.30;;
76063;SDS011;64762;52.006;8.424;2022-11-15T07:23:04;10.93;;;5.53;;
76063;SDS011;64762;52.006;8.424;2022-11-15T07:25:30;14.52;;;6.22;;
76063;SDS011;64762;52.006;8.424;2022-11-15T07:27:59;10.63;;;6.25;;
76063;SDS011;64762;52.006;8.424;2022-11-15T07:30:25;10.40;;;5.38;;
76063;SDS011;64762;52.006;8.424;2022-11-15T07:32:54;13.38;;;5.63;;
76063;SDS011;64762;52.006;8.424;2022-11-15T07:35:23;11.50;;;6.05;;
76063;SDS011;64762;52.006;8.424;2022-11-15T07:37:53;10.13;;;5.82;;
76063;SDS011;64762;52.006;8.424;2022-11-15T07:40:22;9.40;;;5.30;;
76063;SDS011;64762;52.006;8.424;2022-11-15T07:42:47;10.90;;;5.43;;
76063;SDS011;64762;52.006;8.424;2022-11-15T07:45:19;10.52;;;5.40;;
76063;SDS011;64762;52.006;8.424;2022-11-15T07:47:49;10.50;;;5.22;;
76063;SDS011;64762;52.006;8.424;2022-11-15T07:50:14;12.50;;;6.13;;
76063;SDS011;64762;52.006;8.424;2022-11-15T07:52:40;11.77;;;5.78;;
76063;SDS011;64762;52.006;8.424;2022-11-15T07:55:06;11.67;;;5.90;;
76063;SDS011;64762;52.006;8.424;2022-11-15T07:57:32;8.93;;;5.35;;
76063;SDS011;64762;52.006;8.424;2022-11-15T07:59:57;9.50;;;5.47;;
76063;SDS011;64762;52.006;8.424;2022-11-15T08:02:22;10.40;;;5.23;;
76063;SDS011;64762;52.006;8.424;2022-11-15T08:04:48;8.73;;;5.22;;
76063;SDS011;64762;52.006;8.424;2022-11-15T08:07:13;8.40;;;4.73;;
76063;SDS011;64762;52.006;8.424;2022-11-15T08:09:38;11.40;;;4.73;;
76063;SDS011;64762;52.006;8.424;2022-11-15T08:12:04;9.40;;;4.83;;
76063;SDS011;64762;52.006;8.424;2022-11-15T08:14:30;9.57;;;4.30;;
76063;SDS011;64762;52.006;8.424;2022-11-15T08:16:55;7.25;;;3.95;;
76063;SDS011;64762;52.006;8.424;2022-11-15T08:19:21;10.20;;;4.47;;
76063;SDS011;64762;52.006;8.424;2022-11-15T08:21:46;8.63;;;4.63;;
76063;SDS011;64762;52.006;8.424;2022-11-15T08:24:11;8.67;;;4.80;;
76063;SDS011;64762;52.006;8.424;2022-11-15T08:26:37;6.90;;;3.77;;
76063;SDS011;64762;52.006;8.424;2022-11-15T08:29:02;10.55;;;4.28;;
76063;SDS011;64762;52.006;8.424;2022-11-15T08:31:28;9.13;;;4.47;;
76063;SDS011;64762;52.006;8.424;2022-11-15T08:33:53;7.40;;;4.23;;
76063;SDS011;64762;52.006;8.424;2022-11-15T08:36:19;9.80;;;4.22;;
76063;SDS011;64762;52.006;8.424;2022-11-15T08:38:44;6.63;;;3.85;;
76063;SDS011;64762;52.006;8.424;2022-11-15T08:41:11;6.20;;;3.55;;
76063;SDS011;64762;52.006;8.424;2022-11-15T08:43:39;8.13;;;3.40;;
76063;SDS011;64762;52.006;8.424;2022-11-15T08:46:04;7.23;;;4.30;;
76063;SDS011;64762;52.006;8.424;2022-11-15T08:48:30;6.67;;;3.43;;
76063;SDS011;64762;52.006;8.424;2022-11-15T08:50:56;6.63;;;3.58;;
76063;SDS011;64762;52.006;8.424;2022-11-15T08:53:21;5.13;;;3.03;;
76063;SDS011;64762;52.006;8.424;2022-11-15T08:55:47;7.45;;;3.63;;
76063;SDS011;64762;52.006;8.424;2022-11-15T08:58:12;6.90;;;3.33;;
76063;SDS011;64762;52.006;8.424;2022-11-15T09:00:37;7.30;;;3.30;;
76063;SDS011;64762;52.006;8.424;2022-11-15T09:03:03;6.05;;;3.00;;
76063;SDS011;64762;52.006;8.424;2022-11-15T09:05:30;6.78;;;2.90;;
76063;SDS011;64762;52.006;8.424;2022-11-15T09:07:55;5.47;;;2.93;;
76063;SDS011;64762;52.006;8.424;2022-11-15T09:10:21;4.47;;;2.70;;
76063;SDS011;64762;52.006;8.424;2022-11-15T09:12:47;7.40;;;2.53;;
76063;SDS011;64762;52.006;8.424;2022-11-15T09:15:13;5.30;;;2.97;;
76063;SDS011;64762;52.006;8.424;2022-11-15T09:17:40;5.43;;;2.90;;
76063;SDS011;64762;52.006;8.424;2022-11-15T09:20:05;4.35;;;2.13;;
76063;SDS011;64762;52.006;8.424;2022-11-15T09:22:31;4.03;;;2.30;;
76063;SDS011;64762;52.006;8.424;2022-11-15T09:24:56;4.90;;;2.90;;
76063;SDS011;64762;52.006;8.424;2022-11-15T09:27:21;5.83;;;2.00;;
76063;SDS011;64762;52.006;8.424;2022-11-15T09:29:47;4.60;;;2.23;;
76063;SDS011;64762;52.006;8.424;2022-11-15T09:32:12;3.70;;;1.83;;
76063;SDS011;64762;52.006;8.424;2022-11-15T09:34:37;4.73;;;2.10;;
76063;SDS011;64762;52.006;8.424;2022-11-15T09:37:03;6.53;;;2.23;;
76063;SDS011;64762;52.006;8.424;2022-11-15T09:39:28;4.47;;;2.03;;
76063;SDS011;64762;52.006;8.424;2022-11-15T09:49:52;4.40;;;2.20;;
76063;SDS011;64762;52.006;8.424;2022-11-15T09:52:18;3.55;;;1.80;;
76063;SDS011;64762;52.006;8.424;2022-11-15T09:54:46;3.05;;;1.77;;
76063;SDS011;64762;52.006;8.424;2022-11-15T10:04:45;2.83;;;1.45;;
76063;SDS011;64762;52.006;8.424;2022-11-15T10:07:15;4.57;;;1.35;;
76063;SDS011;64762;52.006;8.424;2022-11-15T10:09:59;3.20;;;1.75;;
76063;SDS011;64762;52.006;8.424;2022-11-15T10:12:27;2.40;;;1.17;;
76063;SDS011;64762;52.006;8.424;2022-11-15T10:14:56;3.70;;;1.20;;
76063;SDS011;64762;52.006;8.424;2022-11-15T10:22:52;3.20;;;1.20;;
76063;SDS011;64762;52.006;8.424;2022-11-15T10:25:29;5.75;;;1.15;;
76063;SDS011;64762;52.006;8.424;2022-11-15T10:27:57;4.50;;;1.33;;
76063;SDS011;64762;52.006;8.424;2022-11-15T10:30:36;3.25;;;1.40;;
76063;SDS011;64762;52.006;8.424;2022-11-15T10:33:26;2.85;;;1.17;;
76063;SDS011;64762;52.006;8.424;2022-11-15T10:38:50;4.70;;;1.27;;
76063;SDS011;64762;52.006;8.424;2022-11-15T10:44:07;2.42;;;1.15;;
76063;SDS011;64762;52.006;8.424;2022-11-15T10:46:35;3.28;;;1.35;;
76063;SDS011;64762;52.006;8.424;2022-11-15T10:49:34;2.75;;;1.38;;
76063;SDS011;64762;52.006;8.424;2022-11-15T10:57:12;3.05;;;1.40;;
76063;SDS011;64762;52.006;8.424;2022-11-15T10:59:38;2.58;;;1.17;;
76063;SDS011;64762;52.006;8.424;2022-11-15T11:04:51;2.80;;;1.17;;
76063;SDS011;64762;52.006;8.424;2022-11-15T11:07:21;2.85;;;1.13;;
76063;SDS011;64762;52.006;8.424;2022-11-15T11:10:17;3.67;;;1.17;;
76063;SDS011;64762;52.006;8.424;2022-11-15T11:12:44;3.10;;;1.15;;
76063;SDS011;64762;52.006;8.424;2022-11-15T11:15:10;3.83;;;1.13;;
76063;SDS011;64762;52.006;8.424;2022-11-15T11:20:38;3.50;;;1.17;;
76063;SDS011;64762;52.006;8.424;2022-11-15T11:31:46;3.30;;;1.25;;
76063;SDS011;64762;52.006;8.424;2022-11-15T11:37:13;4.68;;;1.60;;
76063;SDS011;64762;52.006;8.424;2022-11-15T11:47:39;4.35;;;1.45;;
76063;SDS011;64762;52.006;8.424;2022-11-15T11:50:17;3.25;;;1.30;;
76063;SDS011;64762;52.006;8.424;2022-11-15T11:55:24;2.88;;;1.33;;
76063;SDS011;64762;52.006;8.424;2022-11-15T12:00:41;3.28;;;1.50;;
76063;SDS011;64762;52.006;8.424;2022-11-15T12:03:28;4.68;;;1.73;;
76063;SDS011;64762;52.006;8.424;2022-11-15T12:05:59;4.57;;;1.58;;
76063;SDS011;64762;52.006;8.424;2022-11-15T12:09:12;3.75;;;1.40;;
76063;SDS011;64762;52.006;8.424;2022-11-15T12:11:28;4.50;;;1.35;;
76063;SDS011;64762;52.006;8.424;2022-11-15T12:13:58;3.95;;;1.88;;
76063;SDS011;64762;52.006;8.424;2022-11-15T12:16:28;4.80;;;1.58;;
76063;SDS011;64762;52.006;8.424;2022-11-15T12:18:56;4.55;;;1.80;;
76063;SDS011;64762;52.006;8.424;2022-11-15T12:27:26;5.10;;;1.90;;
76063;SDS011;64762;52.006;8.424;2022-11-15T12:30:18;4.95;;;1.73;;
76063;SDS011;64762;52.006;8.424;2022-11-15T12:32:50;6.65;;;1.60;;
76063;SDS011;64762;52.006;8.424;2022-11-15T12:35:22;3.97;;;1.50;;
76063;SDS011;64762;52.006;8.424;2022-11-15T12:38:02;4.30;;;1.52;;
76063;SDS011;64762;52.006;8.424;2022-11-15T12:40:29;7.55;;;2.03;;
76063;SDS011;64762;52.006;8.424;2022-11-15T12:42:57;6.03;;;1.80;;
76063;SDS011;64762;52.006;8.424;2022-11-15T12:45:31;3.95;;;1.50;;
76063;SDS011;64762;52.006;8.424;2022-11-15T12:50:56;5.38;;;1.60;;
76063;SDS011;64762;52.006;8.424;2022-11-15T12:56:09;6.68;;;1.90;;
76063;SDS011;64762;52.006;8.424;2022-11-15T13:12:02;3.28;;;1.42;;
76063;SDS011;64762;52.006;8.424;2022-11-15T13:14:39;4.72;;;1.63;;
76063;SDS011;64762;52.006;8.424;2022-11-15T13:19:46;4.32;;;1.70;;
76063;SDS011;64762;52.006;8.424;2022-11-15T13:22:12;5.80;;;1.63;;
76063;SDS011;64762;52.006;8.424;2022-11-15T13:24:56;3.72;;;1.70;;
76063;SDS011;64762;52.006;8.424;2022-11-15T13:27:22;3.25;;;1.30;;
76063;SDS011;64762;52.006;8.424;2022-11-15T13:29:47;2.88;;;1.20;;
76063;SDS011;64762;52.006;8.424;2022-11-15T13:32:13;3.05;;;1.10;;
76063;SDS011;64762;52.006;8.424;2022-11-15T13:34:44;3.25;;;1.10;;
76063;SDS011;64762;52.006;8.424;2022-11-15T13:39:45;3.65;;;1.27;;
76063;SDS011;64762;52.006;8.424;2022-11-15T13:42:15;3.35;;;1.30;;
76063;SDS011;64762;52.006;8.424;2022-11-15T13:44:54;3.38;;;1.20;;
76063;SDS011;64762;52.006;8.424;2022-11-15T13:47:25;2.75;;;1.45;;
76063;SDS011;64762;52.006;8.424;2022-11-15T13:49:52;5.85;;;1.27;;
76063;SDS011;64762;52.006;8.424;2022-11-15T13:52:17;5.57;;;1.10;;
76063;SDS011;64762;52.006;8.424;2022-11-15T13:57:21;3.00;;;1.08;;
76063;SDS011;64762;52.006;8.424;2022-11-15T13:59:49;3.83;;;1.52;;
76063;SDS011;64762;52.006;8.424;2022-11-15T14:02:21;2.35;;;1.08;;
76063;SDS011;64762;52.006;8.424;2022-11-15T14:04:52;3.63;;;1.20;;
76063;SDS011;64762;52.006;8.424;2022-11-15T14:07:23;5.53;;;1.30;;
76063;SDS011;64762;52.006;8.424;2022-11-15T14:09:49;6.43;;;1.20;;
76063;SDS011;64762;52.006;8.424;2022-11-15T14:12:23;3.50;;;1.17;;
76063;SDS011;64762;52.006;8.424;2022-11-15T14:14:52;3.08;;;1.10;;
76063;SDS011;64762;52.006;8.424;2022-11-15T14:19:56;3.13;;;0.90;;
76063;SDS011;64762;52.006;8.424;2022-11-15T14:22:26;4.72;;;1.50;;
76063;SDS011;64762;52.006;8.424;2022-11-15T14:27:40;5.15;;;1.40;;
76063;SDS011;64762;52.006;8.424;2022-11-15T14:30:12;12.63;;;1.75;;
76063;SDS011;64762;52.006;8.424;2022-11-15T14:32:46;3.47;;;1.20;;
76063;SDS011;64762;52.006;8.424;2022-11-15T14:35:14;3.28;;;1.33;;
76063;SDS011;64762;52.006;8.424;2022-11-15T14:37:41;3.42;;;1.58;;
76063;SDS011;64762;52.006;8.424;2022-11-15T14:40:08;4.83;;;1.10;;
76063;SDS011;64762;52.006;8.424;2022-11-15T14:45:02;3.27;;;1.23;;
76063;SDS011;64762;52.006;8.424;2022-11-15T14:47:27;6.18;;;1.23;;
76063;SDS011;64762;52.006;8.424;2022-11-15T14:49:52;2.53;;;1.10;;
76063;SDS011;64762;52.006;8.424;2022-11-15T14:52:31;4.97;;;1.30;;
76063;SDS011;64762;52.006;8.424;2022-11-15T14:55:01;2.75;;;1.23;;
76063;SDS011;64762;52.006;8.424;2022-11-15T14:57:28;6.20;;;1.40;;
76063;SDS011;64762;52.006;8.424;2022-11-15T14:59:54;3.40;;;1.17;;
76063;SDS011;64762;52.006;8.424;2022-11-15T15:02:21;4.03;;;1.60;;
76063;SDS011;64762;52.006;8.424;2022-11-15T15:04:47;6.78;;;1.30;;
76063;SDS011;64762;52.006;8.424;2022-11-15T15:07:14;8.07;;;1.52;;
76063;SDS011;64762;52.006;8.424;2022-11-15T15:09:40;4.20;;;1.38;;
76063;SDS011;64762;52.006;8.424;2022-11-15T15:12:10;3.28;;;1.17;;
76063;SDS011;64762;52.006;8.424;2022-11-15T15:14:47;3.38;;;1.10;;
76063;SDS011;64762;52.006;8.424;2022-11-15T15:17:13;4.38;;;1.50;;
76063;SDS011;64762;52.006;8.424;2022-11-15T15:19:39;4.88;;;1.50;;
76063;SDS011;64762;52.006;8.424;2022-11-15T15:22:04;6.50;;;1.60;;
76063;SDS011;64762;52.006;8.424;2022-11-15T15:24:30;4.05;;;1.50;;
76063;SDS011;64762;52.006;8.424;2022-11-15T15:26:56;2.90;;;1.30;;
76063;SDS011;64762;52.006;8.424;2022-11-15T15:29:21;4.78;;;2.33;;
76063;SDS011;64762;52.006;8.424;2022-11-15T15:31:46;4.77;;;1.47;;
76063;SDS011;64762;52.006;8.424;2022-11-15T15:34:12;3.53;;;1.50;;
76063;SDS011;64762;52.006;8.424;2022-11-15T15:36:37;5.43;;;1.80;;
76063;SDS011;64762;52.006;8.424;2022-11-15T15:39:03;4.35;;;1.88;;
76063;SDS011;64762;52.006;8.424;2022-11-15T15:41:28;6.00;;;1.88;;
76063;SDS011;64762;52.006;8.424;2022-11-15T15:43:53;3.80;;;1.70;;
76063;SDS011;64762;52.006;8.424;2022-11-15T15:46:19;3.57;;;1.90;;
76063;SDS011;64762;52.006;8.424;2022-11-15T15:48:45;6.72;;;2.00;;
76063;SDS011;64762;52.006;8.424;2022-11-15T15:51:10;5.13;;;1.80;;
76063;SDS011;64762;52.006;8.424;2022-11-15T15:53:36;5.10;;;1.90;;
76063;SDS011;64762;52.006;8.424;2022-11-15T15:56:02;4.22;;;1.92;;
76063;SDS011;64762;52.006;8.424;2022-11-15T15:58:27;4.90;;;1.98;;
76063;SDS011;64762;52.006;8.424;2022-11-15T16:00:53;4.13;;;1.87;;
76063;SDS011;64762;52.006;8.424;2022-11-15T16:03:18;5.37;;;2.10;;
76063;SDS011;64762;52.006;8.424;2022-11-15T16:05:43;4.33;;;1.80;;
76063;SDS011;64762;52.006;8.424;2022-11-15T16:08:27;7.20;;;1.60;;
76063;SDS011;64762;52.006;8.424;2022-11-15T16:10:54;5.70;;;1.60;;
76063;SDS011;64762;52.006;8.424;2022-11-15T16:13:19;5.63;;;1.80;;
76063;SDS011;64762;52.006;8.424;2022-11-15T16:15:45;3.95;;;1.73;;
76063;SDS011;64762;52.006;8.424;2022-11-15T16:18:14;5.40;;;2.10;;
76063;SDS011;64762;52.006;8.424;2022-11-15T16:20:42;4.90;;;2.00;;
76063;SDS011;64762;52.006;8.424;2022-11-15T16:23:13;5.00;;;2.33;;
76063;SDS011;64762;52.006;8.424;2022-11-15T16:25:41;4.40;;;1.95;;
76063;SDS011;64762;52.006;8.424;2022-11-15T16:33:46;5.43;;;2.10;;
76063;SDS011;64762;52.006;8.424;2022-11-15T16:36:15;3.90;;;1.92;;
76063;SDS011;64762;52.006;8.424;2022-11-15T16:38:44;6.20;;;2.10;;
76063;SDS011;64762;52.006;8.424;2022-11-15T16:41:10;5.57;;;2.00;;
76063;SDS011;64762;52.006;8.424;2022-11-15T16:43:35;6.33;;;1.90;;
76063;SDS011;64762;52.006;8.424;2022-11-15T16:46:06;4.05;;;1.77;;
76063;SDS011;64762;52.006;8.424;2022-11-15T16:48:32;7.22;;;1.83;;
76063;SDS011;64762;52.006;8.424;2022-11-15T16:50:58;3.65;;;1.35;;
76063;SDS011;64762;52.006;8.424;2022-11-15T16:53:24;6.10;;;1.63;;
76063;SDS011;64762;52.006;8.424;2022-11-15T16:55:50;4.70;;;1.95;;
76063;SDS011;64762;52.006;8.424;2022-11-15T16:58:16;5.32;;;1.60;;
76063;SDS011;64762;52.006;8.424;2022-11-15T17:00:41;5.17;;;1.87;;
76063;SDS011;64762;52.006;8.424;2022-11-15T17:03:07;4.53;;;1.77;;
76063;SDS011;64762;52.006;8.424;2022-11-15T17:05:32;5.03;;;1.70;;
76063;SDS011;64762;52.006;8.424;2022-11-15T17:07:57;3.30;;;1.60;;
76063;SDS011;64762;52.006;8.424;2022-11-15T17:10:24;4.10;;;1.70;;
76063;SDS011;64762;52.006;8.424;2022-11-15T17:12:50;5.22;;;1.83;;
76063;SDS011;64762;52.006;8.424;2022-11-15T17:15:15;9.30;;;1.85;;
76063;SDS011;64762;52.006;8.424;2022-11-15T17:17:41;4.13;;;1.85;;
76063;SDS011;64762;52.006;8.424;2022-11-15T17:20:11;3.58;;;1.55;;